Morton S Bouchard Jr — WSE9678 — position and weather

sailwx.info

Track history (hours):
 
Tides and Currents Weather Stations Pressure Air Temp Water Temp Dewpoint Dewpoint Depression Visibility Wind Speed Wind Dir Waves Ship Positions

Morton S Bouchard Jr

Owner: BOUCHARD TRANSPORTATION CO INC, MELVILLE, NY. More information available from US FCC via Universal Licensing System and Coast Guard Vessel Documentation Center.

Last reported at 2015-Mar-30 00:33 UTC. Time now 2015-Mar-30 01:01 UTC.
Position N 40°52' W 073°57'.

Length 33 m; draft 6 m.

Type: Tug. MMSI: 367006550.

Date/timePositionNaut miles runAvg speedWind from/ knotsBaromVisibWave heightAir tempDewpointWater temp
2015-Mar-30 00:33N 40°52' W 073°57'6 5.4
2015-Mar-29 23:31N 40°57' W 073°54'  
2015-Mar-26 13:28N 40°56' W 073°55'0 0.0
2015-Mar-26 12:27N 40°56' W 073°55'0 0.0
2015-Mar-26 11:09N 40°56' W 073°55'0 0.0
2015-Mar-26 10:33N 40°56' W 073°55'8 3.8
2015-Mar-26 08:26N 40°48' W 073°59'7 8.3
2015-Mar-26 07:33N 40°41' W 074°02'7 7.0
2015-Mar-26 06:33N 40°39' W 074°11'4 3.2
2015-Mar-26 05:27N 40°35' W 074°12'0 0.0
2015-Mar-26 04:27N 40°35' W 074°12'0 0.0
2015-Mar-26 03:15N 40°35' W 074°12'0 0.0
2015-Mar-26 02:33N 40°35' W 074°12'0 0.0
2015-Mar-26 01:33N 40°35' W 074°12'0 0.0
2015-Mar-26 00:33N 40°35' W 074°12'0 0.0
2015-Mar-25 23:32N 40°35' W 074°12'0 0.0
2015-Mar-25 22:33N 40°35' W 074°12'5 4.7
2015-Mar-25 21:33N 40°39' W 074°08'1 0.5
2015-Mar-25 20:33N 40°39' W 074°07'0 0.0
2015-Mar-25 19:33N 40°39' W 074°07'0 0.0
2015-Mar-25 18:33N 40°39' W 074°07'0 0.0
2015-Mar-25 17:33N 40°39' W 074°07'0 0.0
2015-Mar-25 16:33N 40°39' W 074°07'0 0.0
2015-Mar-25 15:33N 40°39' W 074°07'0 0.0
2015-Mar-25 14:33N 40°39' W 074°07'1 1.2
2015-Mar-25 13:33N 40°38' W 074°09'3 0.5
2015-Mar-25 06:14N 40°36' W 074°12'3 4.7
2015-Mar-25 05:33N 40°39' W 074°09'5 5.0
2015-Mar-25 04:33N 40°37' W 074°03'6 5.8
2015-Mar-25 03:33N 40°32' W 074°00'9 8.5
2015-Mar-25 02:33N 40°28' W 073°50'12 9.0
2015-Mar-25 01:09N 40°31' W 073°34'7 9.7
2015-Mar-25 00:28N 40°33' W 073°25'10 9.7
2015-Mar-24 23:26N 40°35' W 073°12'18 9.7
2015-Mar-24 21:31N 40°42' W 072°50'9 9.5
2015-Mar-24 20:34N 40°45' W 072°39'10 9.6
2015-Mar-24 19:34N 40°49' W 072°27'10 9.6
2015-Mar-24 18:34N 40°53' W 072°15'10 9.6
2015-Mar-24 17:33N 40°57' W 072°04'9 9.3
2015-Mar-24 16:33N 41°00' W 071°52'9 9.4
2015-Mar-24 15:34N 41°04' W 071°41'1010.0
2015-Mar-24 14:33N 41°09' W 071°29'10 9.8
2015-Mar-24 13:34N 41°15' W 071°19'10 9.9
2015-Mar-24 12:34N 41°21' W 071°09'10 9.8
2015-Mar-24 11:32N 41°28' W 070°58'55 6.8
2015-Mar-24 03:23N 42°23' W 070°53'57 1.2
2015-Mar-22 05:33N 41°26' W 071°01'6 6.1
2015-Mar-22 04:33N 41°23' W 071°08'7 6.7
2015-Mar-22 03:33N 41°22' W 071°17'5 4.8
2015-Mar-22 02:33N 41°19' W 071°22'4 4.2
2015-Mar-22 01:33N 41°15' W 071°25'4 4.0
2015-Mar-22 00:33N 41°16' W 071°30'4 4.1
2015-Mar-21 23:34N 41°18' W 071°35'5 4.8
2015-Mar-21 22:33N 41°17' W 071°41'6 5.6
2015-Mar-21 21:33N 41°16' W 071°48'6 6.4
2015-Mar-21 20:33N 41°14' W 071°57'8 7.7
2015-Mar-21 19:33N 41°15' W 072°07'8 7.7
2015-Mar-21 18:33N 41°12' W 072°17'7 7.4
2015-Mar-21 17:33N 41°10' W 072°26'6 5.6
2015-Mar-21 16:33N 41°08' W 072°33'5 5.0
2015-Mar-21 15:33N 41°07' W 072°39'4 4.4
2015-Mar-21 14:33N 41°06' W 072°45'4 4.3
2015-Mar-21 13:33N 41°05' W 072°51'5 4.6
2015-Mar-21 12:33N 41°04' W 072°56'5 4.9
2015-Mar-21 11:33N 41°03' W 073°03'5 5.5
2015-Mar-21 10:33N 41°02' W 073°10'6 5.6
2015-Mar-21 09:33N 41°01' W 073°17'6 6.1
2015-Mar-21 08:33N 40°60' W 073°25'6 6.0
2015-Mar-21 07:33N 40°57' W 073°32'8 5.6
2015-Mar-21 06:09N 40°53' W 073°41'0 0.7
2015-Mar-21 05:31N 40°53' W 073°42'6 6.5
2015-Mar-21 04:32N 40°48' W 073°47'7 5.5
2015-Mar-21 03:16N 40°47' W 073°56'5 6.5
2015-Mar-21 02:34N 40°43' W 073°59'8 7.8
2015-Mar-21 01:33N 40°39' W 074°08'5 4.8
2015-Mar-21 00:29N 40°35' W 074°12'0 0.2
2015-Mar-20 23:33N 40°35' W 074°13'0 0.0
2015-Mar-20 22:33N 40°35' W 074°13'0 0.0
2015-Mar-20 21:30N 40°35' W 074°13'0 0.0
2015-Mar-20 20:34N 40°35' W 074°13'0 0.0
2015-Mar-20 19:29N 40°35' W 074°13'0 0.0
2015-Mar-20 18:33N 40°35' W 074°13'1 0.5
2015-Mar-20 16:30N 40°36' W 074°12'5 4.7
2015-Mar-20 15:32N 40°39' W 074°07'0 0.0
2015-Mar-20 14:29N 40°39' W 074°07'0 0.0
2015-Mar-20 13:32N 40°39' W 074°07'0 0.0
2015-Mar-20 12:33N 40°39' W 074°07'0 0.0
2015-Mar-20 11:33N 40°39' W 074°07'0 0.0
2015-Mar-20 10:33N 40°39' W 074°07'0 0.0
2015-Mar-20 09:33N 40°39' W 074°07'0 0.0
2015-Mar-20 08:33N 40°39' W 074°07'0 0.0
2015-Mar-20 07:34N 40°39' W 074°07'0 0.0
2015-Mar-20 06:32N 40°39' W 074°07'0 0.0
2015-Mar-20 05:32N 40°39' W 074°07'0 0.0
2015-Mar-20 04:32N 40°39' W 074°07'0 0.0
2015-Mar-20 03:31N 40°39' W 074°07'0 0.0
2015-Mar-20 02:33N 40°39' W 074°07'0 0.0
2015-Mar-20 01:32N 40°39' W 074°07'  
Track history (hours):
 
Tides and Currents Weather Stations Pressure Air Temp Water Temp Dewpoint Dewpoint Depression Visibility Wind Speed Wind Dir Waves Ship Positions

Morton S Bouchard Jr

Owner: BOUCHARD TRANSPORTATION CO INC, MELVILLE, NY. More information available from US FCC via Universal Licensing System and Coast Guard Vessel Documentation Center.

Last reported at 2015-Mar-30 00:33 UTC. Time now 2015-Mar-30 01:01 UTC.
Position N 40°52' W 073°57'.

Length 33 m; draft 6 m.

Type: Tug. MMSI: 367006550.

Date/timePositionNaut miles runAvg speedWind from/ knotsBaromVisibWave heightAir tempDewpointWater temp
2015-Mar-30 00:33N 40°52' W 073°57'6 5.4
2015-Mar-29 23:31N 40°57' W 073°54'  
2015-Mar-26 13:28N 40°56' W 073°55'0 0.0
2015-Mar-26 12:27N 40°56' W 073°55'0 0.0
2015-Mar-26 11:09N 40°56' W 073°55'0 0.0
2015-Mar-26 10:33N 40°56' W 073°55'8 3.8
2015-Mar-26 08:26N 40°48' W 073°59'7 8.3
2015-Mar-26 07:33N 40°41' W 074°02'7 7.0
2015-Mar-26 06:33N 40°39' W 074°11'4 3.2
2015-Mar-26 05:27N 40°35' W 074°12'0 0.0
2015-Mar-26 04:27N 40°35' W 074°12'0 0.0
2015-Mar-26 03:15N 40°35' W 074°12'0 0.0
2015-Mar-26 02:33N 40°35' W 074°12'0 0.0
2015-Mar-26 01:33N 40°35' W 074°12'0 0.0
2015-Mar-26 00:33N 40°35' W 074°12'0 0.0
2015-Mar-25 23:32N 40°35' W 074°12'0 0.0
2015-Mar-25 22:33N 40°35' W 074°12'5 4.7
2015-Mar-25 21:33N 40°39' W 074°08'1 0.5
2015-Mar-25 20:33N 40°39' W 074°07'0 0.0
2015-Mar-25 19:33N 40°39' W 074°07'0 0.0
2015-Mar-25 18:33N 40°39' W 074°07'0 0.0
2015-Mar-25 17:33N 40°39' W 074°07'0 0.0
2015-Mar-25 16:33N 40°39' W 074°07'0 0.0
2015-Mar-25 15:33N 40°39' W 074°07'0 0.0
2015-Mar-25 14:33N 40°39' W 074°07'1 1.2
2015-Mar-25 13:33N 40°38' W 074°09'3 0.5
2015-Mar-25 06:14N 40°36' W 074°12'3 4.7
2015-Mar-25 05:33N 40°39' W 074°09'5 5.0
2015-Mar-25 04:33N 40°37' W 074°03'6 5.8
2015-Mar-25 03:33N 40°32' W 074°00'9 8.5
2015-Mar-25 02:33N 40°28' W 073°50'12 9.0
2015-Mar-25 01:09N 40°31' W 073°34'7 9.7
2015-Mar-25 00:28N 40°33' W 073°25'10 9.7
2015-Mar-24 23:26N 40°35' W 073°12'18 9.7
2015-Mar-24 21:31N 40°42' W 072°50'9 9.5
2015-Mar-24 20:34N 40°45' W 072°39'10 9.6
2015-Mar-24 19:34N 40°49' W 072°27'10 9.6
2015-Mar-24 18:34N 40°53' W 072°15'10 9.6
2015-Mar-24 17:33N 40°57' W 072°04'9 9.3
2015-Mar-24 16:33N 41°00' W 071°52'9 9.4
2015-Mar-24 15:34N 41°04' W 071°41'1010.0
2015-Mar-24 14:33N 41°09' W 071°29'10 9.8
2015-Mar-24 13:34N 41°15' W 071°19'10 9.9
2015-Mar-24 12:34N 41°21' W 071°09'10 9.8
2015-Mar-24 11:32N 41°28' W 070°58'55 6.8
2015-Mar-24 03:23N 42°23' W 070°53'57 1.2
2015-Mar-22 05:33N 41°26' W 071°01'6 6.1
2015-Mar-22 04:33N 41°23' W 071°08'7 6.7
2015-Mar-22 03:33N 41°22' W 071°17'5 4.8
2015-Mar-22 02:33N 41°19' W 071°22'4 4.2
2015-Mar-22 01:33N 41°15' W 071°25'4 4.0
2015-Mar-22 00:33N 41°16' W 071°30'4 4.1
2015-Mar-21 23:34N 41°18' W 071°35'5 4.8
2015-Mar-21 22:33N 41°17' W 071°41'6 5.6
2015-Mar-21 21:33N 41°16' W 071°48'6 6.4
2015-Mar-21 20:33N 41°14' W 071°57'8 7.7
2015-Mar-21 19:33N 41°15' W 072°07'8 7.7
2015-Mar-21 18:33N 41°12' W 072°17'7 7.4
2015-Mar-21 17:33N 41°10' W 072°26'6 5.6
2015-Mar-21 16:33N 41°08' W 072°33'5 5.0
2015-Mar-21 15:33N 41°07' W 072°39'4 4.4
2015-Mar-21 14:33N 41°06' W 072°45'4 4.3
2015-Mar-21 13:33N 41°05' W 072°51'5 4.6
2015-Mar-21 12:33N 41°04' W 072°56'5 4.9
2015-Mar-21 11:33N 41°03' W 073°03'5 5.5
2015-Mar-21 10:33N 41°02' W 073°10'6 5.6
2015-Mar-21 09:33N 41°01' W 073°17'6 6.1
2015-Mar-21 08:33N 40°60' W 073°25'6 6.0
2015-Mar-21 07:33N 40°57' W 073°32'8 5.6
2015-Mar-21 06:09N 40°53' W 073°41'0 0.7
2015-Mar-21 05:31N 40°53' W 073°42'6 6.5
2015-Mar-21 04:32N 40°48' W 073°47'7 5.5
2015-Mar-21 03:16N 40°47' W 073°56'5 6.5
2015-Mar-21 02:34N 40°43' W 073°59'8 7.8
2015-Mar-21 01:33N 40°39' W 074°08'5 4.8
2015-Mar-21 00:29N 40°35' W 074°12'0 0.2
2015-Mar-20 23:33N 40°35' W 074°13'0 0.0
2015-Mar-20 22:33N 40°35' W 074°13'0 0.0
2015-Mar-20 21:30N 40°35' W 074°13'0 0.0
2015-Mar-20 20:34N 40°35' W 074°13'0 0.0
2015-Mar-20 19:29N 40°35' W 074°13'0 0.0
2015-Mar-20 18:33N 40°35' W 074°13'1 0.5
2015-Mar-20 16:30N 40°36' W 074°12'5 4.7
2015-Mar-20 15:32N 40°39' W 074°07'0 0.0
2015-Mar-20 14:29N 40°39' W 074°07'0 0.0
2015-Mar-20 13:32N 40°39' W 074°07'0 0.0
2015-Mar-20 12:33N 40°39' W 074°07'0 0.0
2015-Mar-20 11:33N 40°39' W 074°07'0 0.0
2015-Mar-20 10:33N 40°39' W 074°07'0 0.0
2015-Mar-20 09:33N 40°39' W 074°07'0 0.0
2015-Mar-20 08:33N 40°39' W 074°07'0 0.0
2015-Mar-20 07:34N 40°39' W 074°07'0 0.0
2015-Mar-20 06:32N 40°39' W 074°07'0 0.0
2015-Mar-20 05:32N 40°39' W 074°07'0 0.0
2015-Mar-20 04:32N 40°39' W 074°07'0 0.0
2015-Mar-20 03:31N 40°39' W 074°07'0 0.0
2015-Mar-20 02:33N 40°39' W 074°07'0 0.0
2015-Mar-20 01:32N 40°39' W 074°07'  

Dump ship's entire track history